Time;durP1;ratioP1;P1;durP2;ratioP2;P2;SDS_P1;SDS_P2;PMS_P1;PMS_P2;Temp;Humidity;BMP_temperature;BMP_pressure;BME280_temperature;BME280_humidity;BME280_pressure;Samples;Min_cycle;Max_cycle;Signal;HPM_P1;HPM_P2
2022/04/04 00:00:18;;;;;;;20.38;8.82;;;;;;;;;;4951225;28;20461;-63
2022/04/04 00:02:43;;;;;;;23.15;8.77;;;;;;;;;;4951508;28;20037;-63
2022/04/04 00:05:09;;;;;;;19.48;8.93;;;;;;;;;;4951176;28;20445;-63
2022/04/04 00:07:34;;;;;;;20.17;9.18;;;;;;;;;;4950991;28;20322;-63
2022/04/04 00:09:59;;;;;;;23.38;9.05;;;;;;;;;;4950847;28;20511;-63
2022/04/04 00:12:25;;;;;;;22.33;9.55;;;;;;;;;;4952237;28;20437;-64
2022/04/04 00:14:50;;;;;;;24.55;10.02;;;;;;;;;;4950881;28;20332;-64
2022/04/04 00:17:15;;;;;;;20.67;9.05;;;;;;;;;;4951166;28;20452;-63
2022/04/04 00:19:41;;;;;;;21.70;9.10;;;;;;;;;;4951163;28;20390;-63
2022/04/04 00:22:06;;;;;;;18.40;8.73;;;;;;;;;;4950524;28;20069;-63
2022/04/04 00:24:32;;;;;;;25.15;9.63;;;;;;;;;;4950909;28;20602;-63
2022/04/04 00:26:57;;;;;;;20.75;9.63;;;;;;;;;;4950588;28;20437;-63
2022/04/04 00:29:24;;;;;;;25.30;9.35;;;;;;;;;;4950332;28;20056;-63
2022/04/04 00:31:50;;;;;;;26.17;10.02;;;;;;;;;;4951416;28;20100;-64
2022/04/04 00:34:16;;;;;;;30.08;10.02;;;;;;;;;;4950843;28;20491;-64
2022/04/04 00:36:43;;;;;;;24.55;9.25;;;;;;;;;;4950279;28;20449;-63
2022/04/04 00:39:08;;;;;;;23.23;9.32;;;;;;;;;;4950291;28;20069;-63
2022/04/04 00:41:33;;;;;;;25.48;9.80;;;;;;;;;;4950536;28;20030;-63
2022/04/04 00:43:59;;;;;;;19.63;9.18;;;;;;;;;;4950048;28;20457;-64
2022/04/04 00:46:24;;;;;;;22.27;9.00;;;;;;;;;;4950314;28;20528;-63
2022/04/04 00:48:49;;;;;;;24.67;9.18;;;;;;;;;;4950374;28;20429;-63
2022/04/04 00:51:15;;;;;;;24.92;9.93;;;;;;;;;;4950287;28;20337;-63
2022/04/04 00:53:40;;;;;;;24.25;10.07;;;;;;;;;;4950279;28;20393;-63
2022/04/04 00:56:07;;;;;;;24.70;9.85;;;;;;;;;;4949730;28;20448;-63
2022/04/04 00:58:36;;;;;;;29.17;10.05;;;;;;;;;;4951224;28;20414;-63
2022/04/04 01:01:01;;;;;;;22.23;9.55;;;;;;;;;;4957070;28;20059;-64
2022/04/04 01:03:27;;;;;;;24.42;10.05;;;;;;;;;;4954154;28;20038;-63
2022/04/04 01:05:52;;;;;;;27.02;8.88;;;;;;;;;;4950052;28;20395;-63
2022/04/04 01:08:17;;;;;;;22.95;9.32;;;;;;;;;;4949578;28;20392;-63
2022/04/04 01:10:43;;;;;;;28.95;11.52;;;;;;;;;;4950641;28;20347;-64
2022/04/04 01:13:10;;;;;;;20.85;9.45;;;;;;;;;;4950040;28;20421;-63
2022/04/04 01:15:35;;;;;;;24.70;9.95;;;;;;;;;;4951255;28;20049;-63
2022/04/04 01:18:01;;;;;;;22.77;9.60;;;;;;;;;;4949864;28;20030;-63
2022/04/04 01:20:26;;;;;;;28.25;10.90;;;;;;;;;;4949589;28;20026;-64
2022/04/04 01:22:52;;;;;;;21.05;8.90;;;;;;;;;;4949794;28;20433;-63
2022/04/04 01:25:31;;;;;;;24.10;9.57;;;;;;;;;;4950595;28;20173;-64
2022/04/04 01:28:00;;;;;;;28.85;10.00;;;;;;;;;;4949920;28;20341;-63
2022/04/04 01:30:26;;;;;;;;;;;;;;;;;;4950394;28;20367;-64
2022/04/04 01:32:52;;;;;;;20.52;9.68;;;;;;;;;;4951171;28;20280;-63
2022/04/04 01:35:18;;;;;;;23.17;9.43;;;;;;;;;;4949379;28;20449;-63
2022/04/04 01:37:44;;;;;;;21.17;9.13;;;;;;;;;;4950546;28;20468;-63
2022/04/04 01:40:10;;;;;;;23.25;9.32;;;;;;;;;;4949621;28;20660;-63
2022/04/04 01:42:37;;;;;;;20.25;8.90;;;;;;;;;;4949448;28;20348;-63
2022/04/04 01:45:04;;;;;;;23.30;9.50;;;;;;;;;;4949456;28;20330;-63
2022/04/04 01:47:29;;;;;;;22.02;9.57;;;;;;;;;;4950155;28;20421;-63
2022/04/04 01:49:55;;;;;;;28.92;9.35;;;;;;;;;;4949681;28;20349;-64
2022/04/04 01:52:20;;;;;;;23.90;8.80;;;;;;;;;;4949704;28;20394;-63
2022/04/04 01:54:45;;;;;;;25.75;9.73;;;;;;;;;;4949972;28;20397;-64
2022/04/04 01:57:10;;;;;;;21.30;8.68;;;;;;;;;;4949246;28;20506;-63
2022/04/04 01:59:36;;;;;;;27.50;9.40;;;;;;;;;;4949373;28;20449;-63
2022/04/04 02:02:01;;;;;;;19.35;9.10;;;;;;;;;;4950283;28;20460;-64
2022/04/04 02:04:26;;;;;;;25.90;9.80;;;;;;;;;;4949991;28;20341;-63
2022/04/04 02:06:52;;;;;;;22.48;8.77;;;;;;;;;;4951039;28;20026;-63
2022/04/04 02:09:18;;;;;;;22.65;9.57;;;;;;;;;;4949527;28;20428;-63
2022/04/04 02:11:43;;;;;;;21.90;9.07;;;;;;;;;;4949192;28;20453;-63
2022/04/04 02:14:08;;;;;;;22.83;9.00;;;;;;;;;;4949168;28;20048;-63
2022/04/04 02:16:34;;;;;;;20.73;9.15;;;;;;;;;;4950255;28;20500;-63
2022/04/04 02:18:59;;;;;;;20.38;9.75;;;;;;;;;;4949506;28;20418;-64
2022/04/04 02:21:24;;;;;;;23.65;9.20;;;;;;;;;;4949172;28;20348;-63
2022/04/04 02:23:51;;;;;;;21.70;9.57;;;;;;;;;;4949123;28;20467;-63
2022/04/04 02:26:17;;;;;;;19.98;7.82;;;;;;;;;;4949486;28;20422;-63
2022/04/04 02:28:42;;;;;;;21.73;8.88;;;;;;;;;;4948959;28;20386;-63
2022/04/04 02:31:07;;;;;;;23.88;9.40;;;;;;;;;;4949023;28;20453;-64
2022/04/04 02:33:33;;;;;;;23.33;8.27;;;;;;;;;;4948822;28;20409;-63
2022/04/04 02:35:58;;;;;;;21.50;8.80;;;;;;;;;;4949195;28;20572;-63
2022/04/04 02:38:25;;;;;;;19.10;8.38;;;;;;;;;;4948957;28;20393;-64
2022/04/04 02:40:52;;;;;;;19.77;8.00;;;;;;;;;;4949513;28;20438;-63
2022/04/04 02:43:17;;;;;;;20.67;8.23;;;;;;;;;;4949730;28;20056;-64
2022/04/04 02:45:43;;;;;;;21.38;8.02;;;;;;;;;;4948959;28;20033;-63
2022/04/04 02:48:09;;;;;;;19.88;8.38;;;;;;;;;;4948724;28;20445;-64
2022/04/04 02:50:34;;;;;;;19.67;8.40;;;;;;;;;;4948751;28;20449;-63
2022/04/04 02:53:00;;;;;;;17.40;8.75;;;;;;;;;;4952785;28;20088;-63
2022/04/04 02:58:09;;;;;;;20.60;8.05;;;;;;;;;;4952058;28;20507;-64
2022/04/04 03:00:34;;;;;;;21.02;8.68;;;;;;;;;;4954037;28;20425;-63
2022/04/04 03:03:00;;;;;;;23.90;7.93;;;;;;;;;;4952308;28;20089;-63
2022/04/04 03:05:25;;;;;;;19.85;9.32;;;;;;;;;;4952572;28;20100;-63
2022/04/04 03:07:51;;;;;;;17.30;7.20;;;;;;;;;;4952409;28;20388;-63
2022/04/04 03:10:16;;;;;;;22.23;8.52;;;;;;;;;;4952732;28;20350;-63
2022/04/04 03:12:44;;;;;;;22.67;7.93;;;;;;;;;;4952946;28;20310;-63
2022/04/04 03:15:11;;;;;;;19.98;8.73;;;;;;;;;;4951762;28;20385;-64
2022/04/04 03:17:40;;;;;;;21.55;8.43;;;;;;;;;;4951776;28;20034;-63
2022/04/04 03:20:09;;;;;;;;;;;;;;;;;;4952189;28;20354;-63
2022/04/04 03:22:44;;;;;;;23.23;8.53;;;;;;;;;;4952115;28;19917;-63
2022/04/04 03:25:11;;;;;;;20.02;8.43;;;;;;;;;;4951641;28;20480;-64
2022/04/04 03:27:37;;;;;;;18.52;7.63;;;;;;;;;;4952084;28;20373;-64
2022/04/04 03:30:26;;;;;;;19.80;9.02;;;;;;;;;;4952942;28;20304;-63
2022/04/04 03:32:55;;;;;;;16.95;8.25;;;;;;;;;;4911089;28;20398;-63
2022/04/04 03:35:20;;;;;;;20.20;8.60;;;;;;;;;;4910547;28;20495;-64
2022/04/04 03:37:49;;;;;;;17.52;7.82;;;;;;;;;;4909724;28;20804;-63
2022/04/04 03:40:16;;;;;;;20.33;7.95;;;;;;;;;;4910303;28;20520;-63
2022/04/04 03:42:43;;;;;;;19.15;7.85;;;;;;;;;;4910403;28;20371;-63
2022/04/04 03:45:13;;;;;;;15.73;6.97;;;;;;;;;;4910538;28;20466;-63
2022/04/04 03:47:40;;;;;;;20.08;8.18;;;;;;;;;;4910088;28;20429;-64
2022/04/04 03:50:06;;;;;;;17.80;7.20;;;;;;;;;;4909974;28;20358;-63
2022/04/04 03:52:32;;;;;;;20.27;7.45;;;;;;;;;;4910426;28;20423;-63
2022/04/04 03:54:57;;;;;;;19.50;7.78;;;;;;;;;;4909840;28;20326;-63
2022/04/04 03:57:23;;;;;;;17.02;7.55;;;;;;;;;;4909970;28;20046;-63
2022/04/04 03:59:48;;;;;;;12.80;7.00;;;;;;;;;;4909715;28;20082;-63
2022/04/04 04:02:14;;;;;;;18.42;7.00;;;;;;;;;;4909497;28;20350;-64
2022/04/04 04:04:39;;;;;;;18.65;8.52;;;;;;;;;;4909713;28;20462;-63
2022/04/04 04:07:06;;;;;;;16.52;8.02;;;;;;;;;;4909927;28;20048;-63
2022/04/04 04:09:31;;;;;;;14.25;7.15;;;;;;;;;;4916422;28;20409;-63
2022/04/04 04:11:56;;;;;;;18.00;7.43;;;;;;;;;;4951502;28;20421;-63
2022/04/04 04:14:25;;;;;;;17.80;8.02;;;;;;;;;;4950864;28;20476;-63
2022/04/04 04:16:50;;;;;;;21.35;8.02;;;;;;;;;;4950699;28;20333;-63
2022/04/04 04:22:00;;;;;;;17.25;7.57;;;;;;;;;;4951062;28;20095;-63
2022/04/04 04:24:26;;;;;;;18.20;7.30;;;;;;;;;;4950941;28;20449;-63
2022/04/04 04:26:52;;;;;;;12.98;6.68;;;;;;;;;;4950813;28;20470;-64
2022/04/04 04:29:17;;;;;;;18.98;6.97;;;;;;;;;;4951120;28;20484;-64
2022/04/04 04:31:42;;;;;;;14.23;6.88;;;;;;;;;;4950423;28;20616;-63
2022/04/04 04:34:08;;;;;;;15.23;6.95;;;;;;;;;;4951860;28;20457;-64
2022/04/04 04:36:33;;;;;;;18.15;7.57;;;;;;;;;;4950126;28;20377;-63
2022/04/04 04:38:58;;;;;;;13.95;6.82;;;;;;;;;;4951038;28;20418;-64
2022/04/04 04:41:25;;;;;;;17.67;8.25;;;;;;;;;;4950214;28;20537;-63
2022/04/04 04:43:50;;;;;;;16.52;6.90;;;;;;;;;;4950383;28;20026;-63
2022/04/04 04:46:15;;;;;;;18.23;7.28;;;;;;;;;;4949734;28;20029;-63
2022/04/04 04:48:41;;;;;;;14.27;7.38;;;;;;;;;;4951319;28;20076;-63
2022/04/04 04:51:06;;;;;;;14.65;6.93;;;;;;;;;;4950518;28;20429;-63
2022/04/04 04:53:32;;;;;;;13.45;5.75;;;;;;;;;;4950424;28;20360;-64
2022/04/04 04:55:58;;;;;;;16.73;7.22;;;;;;;;;;4951317;28;20329;-63
2022/04/04 04:58:23;;;;;;;21.23;7.88;;;;;;;;;;4950510;28;20333;-63
2022/04/04 05:00:48;;;;;;;17.13;6.88;;;;;;;;;;4950286;28;20487;-63
2022/04/04 05:03:26;;;;;;;17.50;7.60;;;;;;;;;;4950202;28;20464;-64
2022/04/04 05:05:52;;;;;;;16.65;7.18;;;;;;;;;;4950022;28;20326;-63
2022/04/04 05:08:18;;;;;;;18.52;8.00;;;;;;;;;;4950843;28;20347;-64
2022/04/04 05:10:44;;;;;;;18.42;7.00;;;;;;;;;;4949198;28;20123;-64
2022/04/04 05:13:09;;;;;;;21.67;7.82;;;;;;;;;;4949652;28;20030;-63
2022/04/04 05:15:34;;;;;;;20.27;8.10;;;;;;;;;;4949430;28;20433;-63
2022/04/04 05:18:00;;;;;;;17.60;7.63;;;;;;;;;;4949942;28;20396;-63
2022/04/04 05:20:26;;;;;;;20.05;7.18;;;;;;;;;;4949693;28;20507;-63
2022/04/04 05:22:52;;;;;;;16.00;7.25;;;;;;;;;;4950779;28;20431;-63
2022/04/04 05:25:17;;;;;;;16.73;6.75;;;;;;;;;;4949481;28;20365;-63
2022/04/04 05:27:43;;;;;;;18.77;6.85;;;;;;;;;;4949994;28;20381;-63
2022/04/04 05:30:09;;;;;;;15.82;7.72;;;;;;;;;;4950676;28;20048;-63
2022/04/04 05:32:34;;;;;;;19.13;6.68;;;;;;;;;;4932350;28;20384;-63
2022/04/04 05:35:01;;;;;;;17.55;6.55;;;;;;;;;;4950054;28;20345;-64
2022/04/04 05:37:26;;;;;;;15.73;6.38;;;;;;;;;;4949801;28;20457;-64
2022/04/04 05:39:51;;;;;;;13.98;6.72;;;;;;;;;;4949829;28;20485;-63
2022/04/04 05:42:17;;;;;;;19.27;6.55;;;;;;;;;;4949701;28;20382;-63
2022/04/04 05:44:42;;;;;;;13.85;6.57;;;;;;;;;;4950737;28;20192;-63
2022/04/04 05:47:09;;;;;;;14.02;6.28;;;;;;;;;;4949474;28;20384;-63
2022/04/04 05:49:35;;;;;;;13.30;6.00;;;;;;;;;;4949288;28;20527;-63
2022/04/04 05:52:00;;;;;;;14.45;6.05;;;;;;;;;;4949415;28;20092;-63
2022/04/04 05:54:25;;;;;;;12.95;6.13;;;;;;;;;;4949359;28;20464;-63
2022/04/04 05:56:51;;;;;;;10.55;5.38;;;;;;;;;;4949522;28;20433;-63
2022/04/04 05:59:16;;;;;;;15.05;5.68;;;;;;;;;;4949457;28;20442;-63
2022/04/04 06:01:41;;;;;;;13.57;6.22;;;;;;;;;;4950962;28;20030;-64
2022/04/04 06:04:08;;;;;;;15.23;6.82;;;;;;;;;;4949544;28;20339;-64
2022/04/04 06:06:34;;;;;;;14.65;6.75;;;;;;;;;;4949299;28;20492;-63
2022/04/04 06:09:00;;;;;;;14.18;6.22;;;;;;;;;;4949452;28;20359;-63
2022/04/04 06:11:25;;;;;;;13.40;6.45;;;;;;;;;;4949980;28;20417;-63
2022/04/04 06:13:51;;;;;;;12.70;6.13;;;;;;;;;;4949497;28;20412;-63
2022/04/04 06:16:17;;;;;;;17.73;5.70;;;;;;;;;;4949459;28;20410;-63
2022/04/04 06:18:43;;;;;;;14.40;6.03;;;;;;;;;;4949560;28;20323;-64
2022/04/04 06:21:08;;;;;;;13.20;6.00;;;;;;;;;;4949313;28;20392;-63
2022/04/04 06:23:34;;;;;;;13.10;6.47;;;;;;;;;;4949162;28;20105;-63
2022/04/04 06:26:05;;;;;;;14.27;6.18;;;;;;;;;;4952475;28;20480;-63
2022/04/04 06:28:31;;;;;;;11.95;5.78;;;;;;;;;;4953180;28;20460;-64
2022/04/04 06:30:58;;;;;;;13.85;6.47;;;;;;;;;;4952571;28;20026;-63
2022/04/04 06:33:24;;;;;;;15.38;6.28;;;;;;;;;;4952765;28;20563;-63
2022/04/04 06:35:50;;;;;;;15.68;6.25;;;;;;;;;;4952863;28;20445;-63
2022/04/04 06:38:18;;;;;;;13.85;6.15;;;;;;;;;;4952102;28;20461;-63
2022/04/04 06:40:44;;;;;;;12.40;5.57;;;;;;;;;;4952864;28;20429;-64
2022/04/04 06:43:09;;;;;;;13.52;5.80;;;;;;;;;;4953422;28;20375;-64
2022/04/04 06:45:35;;;;;;;18.88;6.10;;;;;;;;;;4952785;28;20408;-65
2022/04/04 06:48:00;;;;;;;22.55;5.65;;;;;;;;;;4952702;28;20337;-64
2022/04/04 06:50:25;;;;;;;10.75;5.78;;;;;;;;;;4952174;28;20088;-65
2022/04/04 06:52:52;;;;;;;12.10;5.38;;;;;;;;;;4952585;28;20434;-64
2022/04/04 06:55:18;;;;;;;9.75;5.25;;;;;;;;;;4952432;28;20442;-64
2022/04/04 06:57:44;;;;;;;12.90;6.30;;;;;;;;;;4954214;28;20056;-65
2022/04/04 07:00:11;;;;;;;13.93;6.50;;;;;;;;;;4952284;28;20038;-64
2022/04/04 07:02:37;;;;;;;16.35;7.45;;;;;;;;;;4952393;28;20512;-64
2022/04/04 07:05:05;;;;;;;12.45;7.18;;;;;;;;;;4952344;28;20422;-64
2022/04/04 07:07:31;;;;;;;13.75;6.80;;;;;;;;;;4952202;28;20025;-65
2022/04/04 07:09:56;;;;;;;12.25;6.25;;;;;;;;;;4953132;28;20109;-65
2022/04/04 07:12:22;;;;;;;13.93;6.30;;;;;;;;;;4952363;28;20437;-64
2022/04/04 07:14:47;;;;;;;17.33;6.57;;;;;;;;;;4952325;28;20461;-64
2022/04/04 07:17:12;;;;;;;12.98;5.93;;;;;;;;;;4952132;28;20417;-64
2022/04/04 07:19:38;;;;;;;14.55;6.40;;;;;;;;;;4951776;28;20423;-64
2022/04/04 07:22:04;;;;;;;9.80;5.07;;;;;;;;;;4952088;28;20385;-64
2022/04/04 07:24:29;;;;;;;12.07;5.75;;;;;;;;;;4951932;28;20369;-65
2022/04/04 07:26:55;;;;;;;9.75;5.60;;;;;;;;;;4951591;28;20456;-64
2022/04/04 07:29:20;;;;;;;13.40;5.90;;;;;;;;;;4951979;28;20455;-64
2022/04/04 07:31:45;;;;;;;10.68;5.18;;;;;;;;;;4951828;28;20334;-65
2022/04/04 07:34:11;;;;;;;10.90;5.30;;;;;;;;;;4952491;28;20025;-64
2022/04/04 07:36:37;;;;;;;10.55;6.00;;;;;;;;;;4952049;28;20381;-64
2022/04/04 07:39:07;;;;;;;11.90;6.43;;;;;;;;;;4951234;28;20549;-64
2022/04/04 07:41:32;;;;;;;;;;;;;;;;;;4952323;28;20100;-64
2022/04/04 07:43:57;;;;;;;10.38;5.90;;;;;;;;;;4951403;28;19913;-64
2022/04/04 07:46:23;;;;;;;10.00;4.78;;;;;;;;;;4952028;28;20472;-64
2022/04/04 07:48:48;;;;;;;11.48;5.53;;;;;;;;;;4951615;28;20084;-64
2022/04/04 07:51:13;;;;;;;9.07;4.70;;;;;;;;;;4952029;28;20034;-64
2022/04/04 07:53:39;;;;;;;11.82;5.55;;;;;;;;;;4951632;28;20104;-64
2022/04/04 07:56:05;;;;;;;9.20;4.55;;;;;;;;;;4951220;28;20076;-64
2022/04/04 07:58:30;;;;;;;11.75;6.05;;;;;;;;;;4950959;28;20420;-65
2022/04/04 08:00:55;;;;;;;12.30;5.28;;;;;;;;;;4951104;28;20455;-65
2022/04/04 08:03:23;;;;;;;11.35;5.55;;;;;;;;;;4951067;28;20034;-64
2022/04/04 08:05:49;;;;;;;17.13;5.38;;;;;;;;;;4951044;28;20453;-65
2022/04/04 08:08:15;;;;;;;12.10;5.13;;;;;;;;;;4951122;28;20491;-65
2022/04/04 08:10:41;;;;;;;11.32;5.00;;;;;;;;;;4951695;28;20377;-65
2022/04/04 08:13:06;;;;;;;8.85;5.25;;;;;;;;;;4950717;28;20457;-65
2022/04/04 08:15:32;;;;;;;11.65;4.63;;;;;;;;;;4950698;28;20342;-64
2022/04/04 08:17:57;;;;;;;12.73;5.63;;;;;;;;;;4950617;28;20120;-65
2022/04/04 08:20:23;;;;;;;9.18;4.70;;;;;;;;;;4951078;28;20468;-64
2022/04/04 08:22:48;;;;;;;8.90;5.05;;;;;;;;;;4951037;28;20361;-64
2022/04/04 08:25:15;;;;;;;8.98;4.50;;;;;;;;;;4950865;28;20029;-65
2022/04/04 08:27:41;;;;;;;8.77;5.10;;;;;;;;;;4951818;28;20380;-65
2022/04/04 08:30:08;;;;;;;9.18;4.82;;;;;;;;;;4950395;28;20440;-64
2022/04/04 08:32:36;;;;;;;11.55;5.30;;;;;;;;;;4950982;28;20412;-65
2022/04/04 08:35:03;;;;;;;12.07;5.33;;;;;;;;;;4950245;28;20505;-64
2022/04/04 08:37:28;;;;;;;14.25;5.50;;;;;;;;;;4950449;28;20584;-65
2022/04/04 08:39:54;;;;;;;10.20;5.22;;;;;;;;;;4949783;28;20346;-64
2022/04/04 08:42:26;;;;;;;10.30;4.75;;;;;;;;;;4950603;28;20404;-64
2022/04/04 08:44:55;;;;;;;12.27;4.82;;;;;;;;;;4933897;28;20026;-65
2022/04/04 08:47:22;;;;;;;11.68;4.93;;;;;;;;;;4950373;28;20053;-65
2022/04/04 08:49:49;;;;;;;10.25;5.18;;;;;;;;;;4950382;28;20500;-64
2022/04/04 08:52:15;;;;;;;13.73;6.05;;;;;;;;;;4933007;28;20097;-66
2022/04/04 08:54:41;;;;;;;10.93;4.97;;;;;;;;;;4950611;28;20447;-64
2022/04/04 08:57:06;;;;;;;9.50;4.90;;;;;;;;;;4951334;28;20536;-66
2022/04/04 08:59:31;;;;;;;9.10;5.57;;;;;;;;;;4950413;28;20056;-65
2022/04/04 09:01:57;;;;;;;11.05;4.65;;;;;;;;;;4949653;28;20404;-65
2022/04/04 09:04:22;;;;;;;16.95;6.20;;;;;;;;;;4950042;28;20345;-65
2022/04/04 09:06:52;;;;;;;17.75;5.38;;;;;;;;;;4950214;28;20532;-66
2022/04/04 09:09:19;;;;;;;11.73;5.47;;;;;;;;;;4950131;28;20392;-64
2022/04/04 09:12:15;;;;;;;12.38;5.43;;;;;;;;;;4950375;28;20406;-64
2022/04/04 09:14:45;;;;;;;10.43;4.43;;;;;;;;;;4937098;28;20496;-64
2022/04/04 09:17:16;;;;;;;7.90;4.40;;;;;;;;;;4949532;28;20064;-65
2022/04/04 09:19:44;;;;;;;10.25;4.82;;;;;;;;;;4949728;28;20096;-64
2022/04/04 09:22:16;;;;;;;12.30;6.35;;;;;;;;;;4950133;28;20113;-64
2022/04/04 09:24:46;;;;;;;11.77;5.57;;;;;;;;;;4950026;28;20326;-65
2022/04/04 09:27:22;;;;;;;8.98;5.18;;;;;;;;;;4950194;28;20049;-64
2022/04/04 09:29:50;;;;;;;12.63;4.90;;;;;;;;;;4950279;28;20442;-64
2022/04/04 09:32:15;;;;;;;13.32;4.80;;;;;;;;;;4950151;28;20471;-64
2022/04/04 09:35:00;;;;;;;8.82;5.25;;;;;;;;;;4950144;28;20464;-65
2022/04/04 09:37:28;;;;;;;10.02;5.35;;;;;;;;;;4949456;28;20373;-64
2022/04/04 09:40:20;;;;;;;8.77;4.40;;;;;;;;;;4949504;28;20398;-64
2022/04/04 09:42:51;;;;;;;7.45;4.50;;;;;;;;;;4949688;28;20446;-64
2022/04/04 09:45:17;;;;;;;10.63;5.53;;;;;;;;;;4949702;28;20307;-65
2022/04/04 09:47:50;;;;;;;10.65;5.00;;;;;;;;;;4949626;28;20117;-65
2022/04/04 09:50:45;;;;;;;10.95;5.07;;;;;;;;;;4947949;28;20353;-64
2022/04/04 09:53:19;;;;;;;10.02;4.78;;;;;;;;;;4949761;28;20373;-65
2022/04/04 09:55:49;;;;;;;5.60;3.35;;;;;;;;;;4949627;28;20030;-64
2022/04/04 09:58:19;;;;;;;9.48;4.70;;;;;;;;;;4949658;28;20056;-64
2022/04/04 10:00:45;;;;;;;8.00;4.28;;;;;;;;;;4951406;28;20349;-64
2022/04/04 10:03:14;;;;;;;8.07;4.18;;;;;;;;;;4953860;28;20337;-64
2022/04/04 10:05:44;;;;;;;8.50;4.43;;;;;;;;;;4953755;28;20336;-65
2022/04/04 10:08:17;;;;;;;9.60;4.35;;;;;;;;;;4953655;28;20451;-64
2022/04/04 10:10:43;;;;;;;9.23;4.68;;;;;;;;;;4954097;28;20467;-65
2022/04/04 10:13:12;;;;;;;11.07;4.85;;;;;;;;;;4953155;28;20441;-64
2022/04/04 10:15:38;;;;;;;10.32;4.95;;;;;;;;;;4953926;28;20429;-64
2022/04/04 10:18:04;;;;;;;8.20;4.78;;;;;;;;;;4953287;28;20445;-64
2022/04/04 10:20:30;;;;;;;9.23;4.88;;;;;;;;;;4952843;28;20480;-64
2022/04/04 10:22:56;;;;;;;10.82;5.15;;;;;;;;;;4955328;28;20421;-64
2022/04/04 10:25:24;;;;;;;12.68;4.80;;;;;;;;;;4953751;28;20476;-64
2022/04/04 10:27:51;;;;;;;7.63;4.53;;;;;;;;;;4953717;28;20038;-64
2022/04/04 10:30:17;;;;;;;9.68;4.88;;;;;;;;;;4954060;28;20341;-64
2022/04/04 10:32:53;;;;;;;10.05;4.45;;;;;;;;;;4953043;28;20345;-64
2022/04/04 10:35:23;;;;;;;8.23;4.03;;;;;;;;;;4953265;28;20057;-63
2022/04/04 10:37:49;;;;;;;8.50;4.45;;;;;;;;;;4952745;28;20472;-64
2022/04/04 10:40:28;;;;;;;10.40;4.28;;;;;;;;;;4952881;28;20404;-64
2022/04/04 10:43:20;;;;;;;8.80;4.55;;;;;;;;;;4953107;28;20022;-63
2022/04/04 10:45:52;;;;;;;8.68;4.63;;;;;;;;;;4950309;28;20547;-64
2022/04/04 10:48:19;;;;;;;10.65;4.60;;;;;;;;;;4953288;28;20085;-64
2022/04/04 10:50:46;;;;;;;7.78;4.60;;;;;;;;;;4952498;28;20440;-63
2022/04/04 10:53:11;;;;;;;8.27;4.05;;;;;;;;;;4952695;28;20341;-63
2022/04/04 10:55:36;;;;;;;8.60;4.20;;;;;;;;;;4952673;28;20033;-64
2022/04/04 10:58:17;;;;;;;8.30;4.05;;;;;;;;;;4952495;28;20073;-63
2022/04/04 11:01:09;;;;;;;7.20;4.38;;;;;;;;;;4952913;28;20362;-64
2022/04/04 11:03:42;;;;;;;8.27;4.40;;;;;;;;;;4952213;28;20070;-64
2022/04/04 11:09:05;;;;;;;8.18;4.15;;;;;;;;;;4953184;28;20472;-63
2022/04/04 11:11:54;;;;;;;7.05;4.03;;;;;;;;;;4953227;28;20448;-64
2022/04/04 11:14:28;;;;;;;7.25;3.35;;;;;;;;;;4952100;28;20477;-64
2022/04/04 11:17:06;;;;;;;5.35;3.45;;;;;;;;;;4952199;28;20472;-63
2022/04/04 11:20:00;;;;;;;7.03;3.80;;;;;;;;;;4952683;28;20034;-64
2022/04/04 11:22:27;;;;;;;6.63;3.55;;;;;;;;;;4952371;28;20472;-63
2022/04/04 11:24:55;;;;;;;7.97;3.67;;;;;;;;;;4953802;28;20022;-64
2022/04/04 11:27:21;;;;;;;7.82;3.80;;;;;;;;;;4953074;28;20026;-64
2022/04/04 11:29:47;;;;;;;9.48;3.60;;;;;;;;;;4952477;28;20342;-64
2022/04/04 11:32:16;;;;;;;6.10;3.38;;;;;;;;;;4952456;28;20421;-64
2022/04/04 11:34:42;;;;;;;8.13;4.22;;;;;;;;;;4952195;28;20500;-64
2022/04/04 11:37:18;;;;;;;6.22;3.55;;;;;;;;;;4951979;28;20508;-64
2022/04/04 11:39:45;;;;;;;9.68;3.40;;;;;;;;;;4952568;28;20088;-64
2022/04/04 11:42:11;;;;;;;5.60;3.63;;;;;;;;;;4934029;28;20048;-64
2022/04/04 11:44:44;;;;;;;6.80;3.35;;;;;;;;;;4953176;28;20366;-64
2022/04/04 11:47:10;;;;;;;5.35;3.63;;;;;;;;;;4933947;28;20346;-64
2022/04/04 11:49:37;;;;;;;10.68;3.67;;;;;;;;;;4951801;28;20478;-64
2022/04/04 11:52:06;;;;;;;7.75;3.30;;;;;;;;;;4952207;28;20345;-64
2022/04/04 11:54:49;;;;;;;9.75;4.10;;;;;;;;;;4951580;28;20373;-64
2022/04/04 11:57:15;;;;;;;7.82;3.40;;;;;;;;;;4951354;28;20381;-64
2022/04/04 11:59:43;;;;;;;5.30;3.15;;;;;;;;;;4952355;28;20029;-63
2022/04/04 12:02:11;;;;;;;6.95;3.38;;;;;;;;;;4951981;28;20325;-63
2022/04/04 12:04:38;;;;;;;4.80;3.03;;;;;;;;;;4951424;28;20425;-64
2022/04/04 12:07:04;;;;;;;5.50;3.30;;;;;;;;;;4952855;28;20377;-64
2022/04/04 12:09:30;;;;;;;6.10;3.45;;;;;;;;;;4933534;28;20406;-63
2022/04/04 12:12:10;;;;;;;8.23;4.18;;;;;;;;;;4951266;28;20299;-64
2022/04/04 12:14:40;;;;;;;8.20;4.38;;;;;;;;;;4952194;28;20052;-64
2022/04/04 12:17:06;;;;;;;6.38;4.05;;;;;;;;;;4951134;28;20133;-64
2022/04/04 12:19:40;;;;;;;6.85;3.40;;;;;;;;;;4951642;28;20397;-64
2022/04/04 12:24:55;;;;;;;5.70;3.22;;;;;;;;;;4951254;28;20030;-63
2022/04/04 12:24:55;;;;;;;5.32;3.13;;;;;;;;;;4936299;28;20349;-63
2022/04/04 12:27:21;;;;;;;6.00;3.72;;;;;;;;;;4934139;28;20491;-63
2022/04/04 12:29:46;;;;;;;9.00;4.20;;;;;;;;;;4952787;28;20504;-64
2022/04/04 12:32:14;;;;;;;7.78;4.40;;;;;;;;;;4950611;28;20434;-63
2022/04/04 12:34:39;;;;;;;7.40;3.92;;;;;;;;;;4950918;28;20369;-63
2022/04/04 12:37:07;;;;;;;10.48;5.07;;;;;;;;;;4933218;28;20404;-64
2022/04/04 12:39:33;;;;;;;6.28;3.60;;;;;;;;;;4950984;28;20492;-63
2022/04/04 12:41:59;;;;;;;8.35;3.80;;;;;;;;;;4950906;28;20437;-64
2022/04/04 12:44:26;;;;;;;5.03;3.40;;;;;;;;;;4951135;28;20463;-64
2022/04/04 12:47:09;;;;;;;6.70;4.03;;;;;;;;;;4951025;28;20334;-64
2022/04/04 12:49:35;;;;;;;7.85;3.92;;;;;;;;;;4950586;28;20555;-63
2022/04/04 12:52:06;;;;;;;6.72;3.58;;;;;;;;;;4933471;28;20380;-64
2022/04/04 12:54:36;;;;;;;7.30;3.97;;;;;;;;;;4952089;28;20418;-64
2022/04/04 12:57:09;;;;;;;8.30;4.88;;;;;;;;;;4950759;28;20097;-64
2022/04/04 12:59:53;;;;;;;7.55;4.97;;;;;;;;;;4950509;28;20045;-64
2022/04/04 13:02:18;;;;;;;7.95;5.95;;;;;;;;;;4950687;28;20434;-64
2022/04/04 13:04:44;;;;;;;5.93;3.25;;;;;;;;;;4950750;28;20429;-65
2022/04/04 13:07:19;;;;;;;7.15;3.67;;;;;;;;;;4932687;28;20108;-63
2022/04/04 13:09:52;;;;;;;6.97;3.90;;;;;;;;;;4951513;28;20543;-64
2022/04/04 13:12:25;;;;;;;8.13;4.20;;;;;;;;;;4950208;28;20437;-64
2022/04/04 13:14:50;;;;;;;6.65;3.88;;;;;;;;;;4950646;28;20532;-63
2022/04/04 13:17:16;;;;;;;4.60;3.13;;;;;;;;;;4949781;28;20441;-64
2022/04/04 13:19:41;;;;;;;9.88;3.63;;;;;;;;;;4950717;28;20114;-64
2022/04/04 13:22:07;;;;;;;6.63;3.28;;;;;;;;;;4950080;28;20329;-63
2022/04/04 13:24:33;;;;;;;8.65;3.67;;;;;;;;;;4950148;28;20456;-63
2022/04/04 13:26:59;;;;;;;12.75;4.10;;;;;;;;;;4949986;28;20466;-63
2022/04/04 13:29:24;;;;;;;9.23;3.97;;;;;;;;;;4949789;28;20510;-63
2022/04/04 13:31:50;;;;;;;5.25;3.33;;;;;;;;;;4950518;28;20507;-64
2022/04/04 13:34:15;;;;;;;10.93;4.18;;;;;;;;;;4949600;28;20061;-63
2022/04/04 13:36:41;;;;;;;7.75;3.75;;;;;;;;;;4949293;28;20457;-63
2022/04/04 13:39:09;;;;;;;6.40;3.05;;;;;;;;;;4949667;28;20523;-64
2022/04/04 13:41:37;;;;;;;6.50;3.35;;;;;;;;;;4950284;28;20487;-64
2022/04/04 13:44:03;;;;;;;6.85;3.40;;;;;;;;;;4950062;28;20349;-63
2022/04/04 13:46:29;;;;;;;12.07;3.95;;;;;;;;;;4949864;28;20460;-64
2022/04/04 13:48:56;;;;;;;6.53;3.47;;;;;;;;;;4950017;28;20441;-64
2022/04/04 13:51:24;;;;;;;5.72;3.33;;;;;;;;;;4949838;28;20348;-64
2022/04/04 13:53:54;;;;;;;6.15;3.40;;;;;;;;;;4949925;28;20364;-63
2022/04/04 13:56:21;;;;;;;11.50;4.05;;;;;;;;;;4949912;28;20022;-63
2022/04/04 13:58:47;;;;;;;7.32;3.92;;;;;;;;;;4950109;28;20381;-63
2022/04/04 14:01:15;;;;;;;7.47;3.75;;;;;;;;;;4949701;28;20307;-63
2022/04/04 14:03:41;;;;;;;8.05;3.85;;;;;;;;;;4949789;28;20426;-64
2022/04/04 14:06:07;;;;;;;6.85;3.78;;;;;;;;;;4950470;28;20467;-63
2022/04/04 14:08:33;;;;;;;10.10;3.40;;;;;;;;;;4949936;28;20104;-64
2022/04/04 14:10:59;;;;;;;9.98;3.45;;;;;;;;;;4951069;28;20409;-64
2022/04/04 14:13:24;;;;;;;8.48;3.70;;;;;;;;;;4949280;28;20350;-63
2022/04/04 14:15:50;;;;;;;7.18;3.65;;;;;;;;;;4949671;28;20475;-63
2022/04/04 14:18:16;;;;;;;10.60;4.13;;;;;;;;;;4950136;28;20053;-64
2022/04/04 14:20:42;;;;;;;6.90;3.97;;;;;;;;;;4949908;28;20317;-64
2022/04/04 14:23:07;;;;;;;8.07;3.72;;;;;;;;;;4949780;28;20349;-63
2022/04/04 14:25:33;;;;;;;8.60;3.70;;;;;;;;;;4949405;28;20389;-63
2022/04/04 14:27:58;;;;;;;6.55;3.28;;;;;;;;;;4949426;28;20453;-63
2022/04/04 14:30:25;;;;;;;7.10;3.72;;;;;;;;;;4949589;28;20434;-64
2022/04/04 14:32:52;;;;;;;8.00;3.40;;;;;;;;;;4949380;28;20030;-64
2022/04/04 14:35:17;;;;;;;6.50;3.78;;;;;;;;;;4950016;28;20023;-64
2022/04/04 14:37:42;;;;;;;6.95;3.20;;;;;;;;;;4949036;28;20055;-64
2022/04/04 14:40:08;;;;;;;6.07;2.97;;;;;;;;;;4949104;28;20444;-63
2022/04/04 14:42:34;;;;;;;5.50;3.20;;;;;;;;;;4949220;28;20822;-64
2022/04/04 14:44:59;;;;;;;7.45;3.53;;;;;;;;;;4949696;28;20341;-63